sensor_id;sensor_type;location;lat;lon;timestamp;pressure;altitude;pressure_sealevel;temperature;humidity
40918;BME280;26644;50.248;19.032;2022-11-18T00:00:51;96789.00;;;1.38;73.97
40918;BME280;26644;50.248;19.032;2022-11-18T00:01:53;96786.28;;;1.38;74.27
40918;BME280;26644;50.248;19.032;2022-11-18T00:02:56;96791.97;;;1.36;74.21
40918;BME280;26644;50.248;19.032;2022-11-18T00:03:58;96788.44;;;1.36;74.16
40918;BME280;26644;50.248;19.032;2022-11-18T00:05:00;96784.34;;;1.33;74.29
40918;BME280;26644;50.248;19.032;2022-11-18T00:06:02;96781.13;;;1.31;74.26
40918;BME280;26644;50.248;19.032;2022-11-18T00:07:05;96785.41;;;1.27;74.43
40918;BME280;26644;50.248;19.032;2022-11-18T00:08:09;96786.50;;;1.26;74.35
40918;BME280;26644;50.248;19.032;2022-11-18T00:09:11;96786.75;;;1.24;74.42
40918;BME280;26644;50.248;19.032;2022-11-18T00:10:12;96785.94;;;1.24;74.52
40918;BME280;26644;50.248;19.032;2022-11-18T00:11:17;96780.25;;;1.20;74.62
40918;BME280;26644;50.248;19.032;2022-11-18T00:12:36;96784.81;;;1.20;74.52
40918;BME280;26644;50.248;19.032;2022-11-18T00:13:56;96778.34;;;1.21;75.10
40918;BME280;26644;50.248;19.032;2022-11-18T00:15:16;96785.66;;;1.20;75.06
40918;BME280;26644;50.248;19.032;2022-11-18T00:16:19;96770.75;;;1.18;74.84
40918;BME280;26644;50.248;19.032;2022-11-18T00:17:20;96772.41;;;1.19;75.12
40918;BME280;26644;50.248;19.032;2022-11-18T00:18:22;96773.19;;;1.19;75.09
40918;BME280;26644;50.248;19.032;2022-11-18T00:19:27;96771.56;;;1.18;74.83
40918;BME280;26644;50.248;19.032;2022-11-18T00:20:32;96771.81;;;1.17;75.05
40918;BME280;26644;50.248;19.032;2022-11-18T00:21:33;96769.69;;;1.19;74.94
40918;BME280;26644;50.248;19.032;2022-11-18T00:22:35;96775.91;;;1.19;74.88
40918;BME280;26644;50.248;19.032;2022-11-18T00:23:39;96768.31;;;1.16;74.89
40918;BME280;26644;50.248;19.032;2022-11-18T00:24:42;96766.41;;;1.17;75.13
40918;BME280;26644;50.248;19.032;2022-11-18T00:25:44;96773.72;;;1.16;75.04
40918;BME280;26644;50.248;19.032;2022-11-18T00:26:46;96763.66;;;1.12;75.11
40918;BME280;26644;50.248;19.032;2022-11-18T00:27:48;96771.03;;;1.16;75.45
40918;BME280;26644;50.248;19.032;2022-11-18T00:28:50;96768.59;;;1.15;75.06
40918;BME280;26644;50.248;19.032;2022-11-18T00:29:52;96773.72;;;1.16;75.35
40918;BME280;26644;50.248;19.032;2022-11-18T00:30:59;96769.13;;;1.17;75.23
40918;BME280;26644;50.248;19.032;2022-11-18T00:32:02;96767.75;;;1.14;75.38
40918;BME280;26644;50.248;19.032;2022-11-18T00:33:06;96768.53;;;1.09;75.31
40918;BME280;26644;50.248;19.032;2022-11-18T00:34:09;96751.19;;;1.00;75.46
40918;BME280;26644;50.248;19.032;2022-11-18T00:35:18;96772.84;;;1.05;75.48
40918;BME280;26644;50.248;19.032;2022-11-18T00:36:20;96772.84;;;1.05;75.72
40918;BME280;26644;50.248;19.032;2022-11-18T00:37:22;96768.50;;;1.04;75.76
40918;BME280;26644;50.248;19.032;2022-11-18T00:38:24;96772.00;;;1.05;75.51
40918;BME280;26644;50.248;19.032;2022-11-18T00:39:28;96771.75;;;1.06;76.01
40918;BME280;26644;50.248;19.032;2022-11-18T00:40:30;96772.56;;;1.07;75.97
40918;BME280;26644;50.248;19.032;2022-11-18T00:41:33;96771.47;;;1.08;75.66
40918;BME280;26644;50.248;19.032;2022-11-18T00:42:49;96770.41;;;1.09;75.74
40918;BME280;26644;50.248;19.032;2022-11-18T00:43:53;96771.75;;;1.06;76.03
40918;BME280;26644;50.248;19.032;2022-11-18T00:44:55;96764.72;;;1.05;75.51
40918;BME280;26644;50.248;19.032;2022-11-18T00:45:57;96772.00;;;1.05;75.81
40918;BME280;26644;50.248;19.032;2022-11-18T00:47:00;96777.41;;;1.05;76.04
40918;BME280;26644;50.248;19.032;2022-11-18T00:48:02;96771.75;;;1.06;75.73
40918;BME280;26644;50.248;19.032;2022-11-18T00:49:04;96777.16;;;1.06;76.15
40918;BME280;26644;50.248;19.032;2022-11-18T00:50:06;96778.50;;;1.09;75.79
40918;BME280;26644;50.248;19.032;2022-11-18T00:51:13;96781.53;;;1.13;75.95
40918;BME280;26644;50.248;19.032;2022-11-18T00:52:16;96777.22;;;1.17;75.91
40918;BME280;26644;50.248;19.032;2022-11-18T00:53:20;96776.69;;;1.20;75.62
40918;BME280;26644;50.248;19.032;2022-11-18T00:54:23;96778.06;;;1.22;75.53
40918;BME280;26644;50.248;19.032;2022-11-18T00:55:26;96778.63;;;1.24;75.61
40918;BME280;26644;50.248;19.032;2022-11-18T00:56:29;96777.00;;;1.23;75.69
40918;BME280;26644;50.248;19.032;2022-11-18T00:57:31;96779.47;;;1.30;75.66
40918;BME280;26644;50.248;19.032;2022-11-18T00:58:33;96770.84;;;1.28;75.33
40918;BME280;26644;50.248;19.032;2022-11-18T00:59:35;96782.75;;;1.32;75.06
40918;BME280;26644;50.248;19.032;2022-11-18T01:00:37;96777.63;;;1.31;75.22
40918;BME280;26644;50.248;19.032;2022-11-18T01:01:40;96783.81;;;1.31;75.19
40918;BME280;26644;50.248;19.032;2022-11-18T01:02:41;96783.56;;;1.33;75.15
40918;BME280;26644;50.248;19.032;2022-11-18T01:03:44;96774.03;;;1.25;74.98
40918;BME280;26644;50.248;19.032;2022-11-18T01:04:46;96795.19;;;1.33;75.30
40918;BME280;26644;50.248;19.032;2022-11-18T01:05:48;96793.31;;;1.34;75.42
40918;BME280;26644;50.248;19.032;2022-11-18T01:06:51;96785.72;;;1.31;74.84
40918;BME280;26644;50.248;19.032;2022-11-18T01:07:53;96786.84;;;1.35;74.87
40918;BME280;26644;50.248;19.032;2022-11-18T01:08:54;96783.84;;;1.36;74.82
40918;BME280;26644;50.248;19.032;2022-11-18T01:09:57;96778.72;;;1.35;74.84
40918;BME280;26644;50.248;19.032;2022-11-18T01:11:00;96777.09;;;1.34;75.06
40918;BME280;26644;50.248;19.032;2022-11-18T01:12:17;96768.97;;;1.34;74.92
40918;BME280;26644;50.248;19.032;2022-11-18T01:13:37;96777.63;;;1.36;75.21
40918;BME280;26644;50.248;19.032;2022-11-18T01:14:39;96777.63;;;1.36;75.15
40918;BME280;26644;50.248;19.032;2022-11-18T01:15:42;96771.97;;;1.37;75.07
40918;BME280;26644;50.248;19.032;2022-11-18T01:16:45;96768.16;;;1.38;74.60
40918;BME280;26644;50.248;19.032;2022-11-18T01:17:51;96760.03;;;1.33;74.93
40918;BME280;26644;50.248;19.032;2022-11-18T01:18:54;96771.72;;;1.39;74.67
40918;BME280;26644;50.248;19.032;2022-11-18T01:19:55;96764.94;;;1.36;74.48
40918;BME280;26644;50.248;19.032;2022-11-18T01:20:59;96764.09;;;1.36;74.59
40918;BME280;26644;50.248;19.032;2022-11-18T01:22:01;96765.44;;;1.33;74.74
40918;BME280;26644;50.248;19.032;2022-11-18T01:23:05;96762.72;;;1.33;74.52
40918;BME280;26644;50.248;19.032;2022-11-18T01:24:06;96746.78;;;1.32;74.72
40918;BME280;26644;50.248;19.032;2022-11-18T01:25:09;96750.00;;;1.29;74.64
40918;BME280;26644;50.248;19.032;2022-11-18T01:26:14;96751.88;;;1.23;74.79
40918;BME280;26644;50.248;19.032;2022-11-18T01:27:17;96742.38;;;1.20;74.73
40918;BME280;26644;50.248;19.032;2022-11-18T01:28:19;96741.81;;;1.18;75.05
40918;BME280;26644;50.248;19.032;2022-11-18T01:29:22;96745.38;;;1.19;75.21
40918;BME280;26644;50.248;19.032;2022-11-18T01:30:23;96745.91;;;1.21;75.24
40918;BME280;26644;50.248;19.032;2022-11-18T01:31:26;96754.00;;;1.21;75.02
40918;BME280;26644;50.248;19.032;2022-11-18T01:32:27;96750.22;;;1.22;74.94
40918;BME280;26644;50.248;19.032;2022-11-18T01:33:31;96748.59;;;1.21;75.17
40918;BME280;26644;50.248;19.032;2022-11-18T01:34:32;96746.47;;;1.23;75.31
40918;BME280;26644;50.248;19.032;2022-11-18T01:35:36;96738.31;;;1.18;74.88
40918;BME280;26644;50.248;19.032;2022-11-18T01:36:38;96736.41;;;1.18;74.64
40918;BME280;26644;50.248;19.032;2022-11-18T01:37:41;96739.13;;;1.18;74.83
40918;BME280;26644;50.248;19.032;2022-11-18T01:38:43;96736.69;;;1.17;74.92
40918;BME280;26644;50.248;19.032;2022-11-18T01:39:46;96739.38;;;1.17;75.12
40918;BME280;26644;50.248;19.032;2022-11-18T01:40:47;96728.84;;;1.15;75.18
40918;BME280;26644;50.248;19.032;2022-11-18T01:41:51;96734.25;;;1.15;75.30
40918;BME280;26644;50.248;19.032;2022-11-18T01:42:52;96737.75;;;1.16;75.13
40918;BME280;26644;50.248;19.032;2022-11-18T01:43:58;96730.97;;;1.13;75.09
40918;BME280;26644;50.248;19.032;2022-11-18T01:45:05;96723.41;;;1.10;75.43
40918;BME280;26644;50.248;19.032;2022-11-18T01:46:20;96724.47;;;1.09;75.33
40918;BME280;26644;50.248;19.032;2022-11-18T01:47:25;96715.28;;;1.10;75.41
40918;BME280;26644;50.248;19.032;2022-11-18T01:48:34;96719.63;;;1.11;75.30
40918;BME280;26644;50.248;19.032;2022-11-18T01:49:38;96723.69;;;1.14;75.56
40918;BME280;26644;50.248;19.032;2022-11-18T01:50:45;96725.56;;;1.13;75.49
40918;BME280;26644;50.248;19.032;2022-11-18T01:51:54;96721.53;;;1.16;75.28
40918;BME280;26644;50.248;19.032;2022-11-18T01:53:02;96717.22;;;1.15;75.25
40918;BME280;26644;50.248;19.032;2022-11-18T01:54:13;96714.53;;;1.15;75.23
40918;BME280;26644;50.248;19.032;2022-11-18T01:55:24;96718.28;;;1.14;75.15
40918;BME280;26644;50.248;19.032;2022-11-18T01:56:36;96718.81;;;1.16;75.03
40918;BME280;26644;50.248;19.032;2022-11-18T01:57:47;96717.75;;;1.17;75.14
40918;BME280;26644;50.248;19.032;2022-11-18T01:58:54;96711.28;;;1.18;75.19
40918;BME280;26644;50.248;19.032;2022-11-18T02:00:03;96719.13;;;1.19;74.91
40918;BME280;26644;50.248;19.032;2022-11-18T02:01:07;96705.31;;;1.16;74.73
40918;BME280;26644;50.248;19.032;2022-11-18T02:02:11;96709.91;;;1.15;74.75
40918;BME280;26644;50.248;19.032;2022-11-18T02:03:16;96712.00;;;1.08;74.91
40918;BME280;26644;50.248;19.032;2022-11-18T02:04:20;96715.03;;;1.12;74.93
40918;BME280;26644;50.248;19.032;2022-11-18T02:05:25;96719.09;;;1.14;75.10
40918;BME280;26644;50.248;19.032;2022-11-18T02:06:28;96714.53;;;1.15;74.72
40918;BME280;26644;50.248;19.032;2022-11-18T02:07:32;96720.47;;;1.17;74.63
40918;BME280;26644;50.248;19.032;2022-11-18T02:08:37;96715.06;;;1.17;74.61
40918;BME280;26644;50.248;19.032;2022-11-18T02:09:41;96720.19;;;1.18;74.84
40918;BME280;26644;50.248;19.032;2022-11-18T02:10:44;96717.22;;;1.20;74.61
40918;BME280;26644;50.248;19.032;2022-11-18T02:11:47;96718.88;;;1.21;74.44
40918;BME280;26644;50.248;19.032;2022-11-18T02:12:56;96721.31;;;1.22;74.79
40918;BME280;26644;50.248;19.032;2022-11-18T02:14:02;96721.06;;;1.24;74.64
40918;BME280;26644;50.248;19.032;2022-11-18T02:15:09;96715.13;;;1.27;74.37
40918;BME280;26644;50.248;19.032;2022-11-18T02:16:14;96714.06;;;1.28;74.40
40918;BME280;26644;50.248;19.032;2022-11-18T02:17:36;96705.38;;;1.26;73.96
40918;BME280;26644;50.248;19.032;2022-11-18T02:18:54;96706.72;;;1.23;74.31
40918;BME280;26644;50.248;19.032;2022-11-18T02:21:49;96695.88;;;1.18;74.74
40918;BME280;26644;50.248;19.032;2022-11-18T02:25:07;96706.16;;;1.16;74.67
40918;BME280;26644;50.248;19.032;2022-11-18T02:28:50;96698.78;;;1.06;74.92
40918;BME280;26644;50.248;19.032;2022-11-18T02:30:03;96704.44;;;1.05;74.90
40918;BME280;26644;50.248;19.032;2022-11-18T02:31:16;96706.34;;;1.04;74.97
40918;BME280;26644;50.248;19.032;2022-11-18T02:32:31;96703.91;;;1.03;74.91
40918;BME280;26644;50.248;19.032;2022-11-18T02:33:43;96705.78;;;1.02;75.12
40918;BME280;26644;50.248;19.032;2022-11-18T02:34:58;96697.38;;;0.99;75.24
40918;BME280;26644;50.248;19.032;2022-11-18T02:36:15;96705.72;;;0.97;75.02
40918;BME280;26644;50.248;19.032;2022-11-18T02:37:27;96706.84;;;0.96;75.33
40918;BME280;26644;50.248;19.032;2022-11-18T02:38:41;96712.78;;;0.98;75.11
40918;BME280;26644;50.248;19.032;2022-11-18T02:39:53;96708.16;;;0.99;75.48
40918;BME280;26644;50.248;19.032;2022-11-18T02:41:04;96708.75;;;1.01;75.71
40918;BME280;26644;50.248;19.032;2022-11-18T02:42:13;96708.16;;;0.99;75.42
40918;BME280;26644;50.248;19.032;2022-11-18T02:43:21;96708.69;;;0.96;75.26
40918;BME280;26644;50.248;19.032;2022-11-18T02:44:32;96709.72;;;0.89;75.46
40918;BME280;26644;50.248;19.032;2022-11-18T02:45:42;96703.53;;;0.89;75.54
40918;BME280;26644;50.248;19.032;2022-11-18T02:46:54;96713.78;;;0.87;75.83
40918;BME280;26644;50.248;19.032;2022-11-18T02:48:03;96718.34;;;0.86;76.06
40918;BME280;26644;50.248;19.032;2022-11-18T02:49:13;96703.47;;;0.84;75.84
40918;BME280;26644;50.248;19.032;2022-11-18T02:50:24;96713.19;;;0.80;75.98
40918;BME280;26644;50.248;19.032;2022-11-18T02:51:32;96711.28;;;0.80;76.13
40918;BME280;26644;50.248;19.032;2022-11-18T02:52:38;96712.91;;;0.81;76.18
40918;BME280;26644;50.248;19.032;2022-11-18T02:53:46;96711.28;;;0.80;76.42
40918;BME280;26644;50.248;19.032;2022-11-18T02:54:51;96712.13;;;0.81;76.32
40918;BME280;26644;50.248;19.032;2022-11-18T02:55:58;96699.13;;;0.77;76.39
40918;BME280;26644;50.248;19.032;2022-11-18T02:57:04;96705.06;;;0.80;76.33
40918;BME280;26644;50.248;19.032;2022-11-18T02:58:08;96704.28;;;0.79;76.36
40918;BME280;26644;50.248;19.032;2022-11-18T02:59:11;96715.88;;;0.80;76.02
40918;BME280;26644;50.248;19.032;2022-11-18T03:00:20;96719.66;;;0.79;76.08
40918;BME280;26644;50.248;19.032;2022-11-18T03:01:25;96716.69;;;0.80;76.13
40918;BME280;26644;50.248;19.032;2022-11-18T03:02:39;96712.13;;;0.81;76.04
40918;BME280;26644;50.248;19.032;2022-11-18T03:03:42;96721.84;;;0.82;76.16
40918;BME280;26644;50.248;19.032;2022-11-18T03:04:47;96719.16;;;0.82;76.23
40918;BME280;26644;50.248;19.032;2022-11-18T03:06:04;96729.69;;;0.83;75.83
40918;BME280;26644;50.248;19.032;2022-11-18T03:07:17;96720.22;;;0.81;75.96
40918;BME280;26644;50.248;19.032;2022-11-18T03:08:34;96720.47;;;0.79;76.02
40918;BME280;26644;50.248;19.032;2022-11-18T03:09:43;96715.06;;;0.79;76.00
40918;BME280;26644;50.248;19.032;2022-11-18T03:10:56;96703.44;;;0.79;75.87
40918;BME280;26644;50.248;19.032;2022-11-18T03:12:17;96710.47;;;0.80;76.20
40918;BME280;26644;50.248;19.032;2022-11-18T03:13:33;96711.28;;;0.80;76.16
40918;BME280;26644;50.248;19.032;2022-11-18T03:14:50;96712.13;;;0.81;75.94
40918;BME280;26644;50.248;19.032;2022-11-18T03:16:03;96706.44;;;0.82;75.87
40918;BME280;26644;50.248;19.032;2022-11-18T03:17:14;96699.97;;;0.83;76.05
40918;BME280;26644;50.248;19.032;2022-11-18T03:18:31;96708.34;;;0.82;75.76
40918;BME280;26644;50.248;19.032;2022-11-18T03:19:55;96704.75;;;0.76;76.04
40918;BME280;26644;50.248;19.032;2022-11-18T03:21:15;96709.69;;;0.79;75.76
40918;BME280;26644;50.248;19.032;2022-11-18T03:22:27;96701.00;;;0.77;75.92
40918;BME280;26644;50.248;19.032;2022-11-18T03:23:37;96697.75;;;0.75;75.77
40918;BME280;26644;50.248;19.032;2022-11-18T03:24:53;96706.97;;;0.79;75.80
40918;BME280;26644;50.248;19.032;2022-11-18T03:26:04;96699.94;;;0.78;75.91
40918;BME280;26644;50.248;19.032;2022-11-18T03:27:17;96700.47;;;0.80;76.00
40918;BME280;26644;50.248;19.032;2022-11-18T03:28:28;96698.88;;;0.79;76.26
40918;BME280;26644;50.248;19.032;2022-11-18T03:29:39;96702.41;;;0.85;76.12
40918;BME280;26644;50.248;19.032;2022-11-18T03:30:53;96699.19;;;0.88;76.03
40918;BME280;26644;50.248;19.032;2022-11-18T03:32:08;96681.56;;;0.80;75.90
40918;BME280;26644;50.248;19.032;2022-11-18T03:33:21;96692.19;;;0.92;75.76
40918;BME280;26644;50.248;19.032;2022-11-18T03:34:34;96681.63;;;0.90;76.05
40918;BME280;26644;50.248;19.032;2022-11-18T03:35:45;96691.06;;;0.88;76.07
40918;BME280;26644;50.248;19.032;2022-11-18T03:36:55;96680.81;;;0.85;75.77
40918;BME280;26644;50.248;19.032;2022-11-18T03:38:05;96683.28;;;0.91;76.08
40918;BME280;26644;50.248;19.032;2022-11-18T03:39:15;96677.31;;;0.89;75.95
40918;BME280;26644;50.248;19.032;2022-11-18T03:40:23;96687.31;;;0.89;75.85
40918;BME280;26644;50.248;19.032;2022-11-18T03:41:34;96682.16;;;0.87;75.96
40918;BME280;26644;50.248;19.032;2022-11-18T03:42:43;96685.94;;;0.86;76.09
40918;BME280;26644;50.248;19.032;2022-11-18T03:43:55;96683.22;;;0.86;76.12
40918;BME280;26644;50.248;19.032;2022-11-18T03:45:05;96690.81;;;0.84;76.52
40918;BME280;26644;50.248;19.032;2022-11-18T03:46:17;96692.66;;;0.84;76.05
40918;BME280;26644;50.248;19.032;2022-11-18T03:47:29;96692.66;;;0.84;76.02
40918;BME280;26644;50.248;19.032;2022-11-18T03:48:43;96696.22;;;0.84;76.27
40918;BME280;26644;50.248;19.032;2022-11-18T03:49:54;96697.81;;;0.85;76.55
40918;BME280;26644;50.248;19.032;2022-11-18T03:51:04;96695.13;;;0.85;76.45
40918;BME280;26644;50.248;19.032;2022-11-18T03:52:12;96702.16;;;0.86;76.31
40918;BME280;26644;50.248;19.032;2022-11-18T03:53:21;96697.28;;;0.83;76.19
40918;BME280;26644;50.248;19.032;2022-11-18T03:54:30;96688.34;;;0.83;76.61
40918;BME280;26644;50.248;19.032;2022-11-18T03:55:40;96684.84;;;0.82;76.69
40918;BME280;26644;50.248;19.032;2022-11-18T03:56:48;96687.53;;;0.82;76.75
40918;BME280;26644;50.248;19.032;2022-11-18T03:58:04;96684.03;;;0.82;76.84
40918;BME280;26644;50.248;19.032;2022-11-18T03:59:14;96680.00;;;0.84;77.25
40918;BME280;26644;50.248;19.032;2022-11-18T04:00:25;96688.59;;;0.81;77.15
40918;BME280;26644;50.248;19.032;2022-11-18T04:01:39;96667.47;;;0.73;76.99
40918;BME280;26644;50.248;19.032;2022-11-18T04:02:49;96688.88;;;0.80;76.89
40918;BME280;26644;50.248;19.032;2022-11-18T04:03:51;96685.63;;;0.77;77.06
40918;BME280;26644;50.248;19.032;2022-11-18T04:04:56;96680.72;;;0.74;77.12
40918;BME280;26644;50.248;19.032;2022-11-18T04:06:07;96692.34;;;0.75;77.32
40918;BME280;26644;50.248;19.032;2022-11-18T04:07:23;96690.47;;;0.75;76.99
40918;BME280;26644;50.248;19.032;2022-11-18T04:08:37;96679.91;;;0.74;77.08
40918;BME280;26644;50.248;19.032;2022-11-18T04:09:49;96676.94;;;0.75;77.34
40918;BME280;26644;50.248;19.032;2022-11-18T04:11:02;96682.09;;;0.77;77.15
40918;BME280;26644;50.248;19.032;2022-11-18T04:12:15;96673.44;;;0.75;77.17
40918;BME280;26644;50.248;19.032;2022-11-18T04:13:25;96670.97;;;0.73;77.66
40918;BME280;26644;50.248;19.032;2022-11-18T04:14:32;96666.91;;;0.71;77.58
40918;BME280;26644;50.248;19.032;2022-11-18T04:15:38;96668.00;;;0.70;77.60
40918;BME280;26644;50.248;19.032;2022-11-18T04:16:43;96659.84;;;0.65;77.82
40918;BME280;26644;50.248;19.032;2022-11-18T04:17:47;96657.66;;;0.62;77.89
40918;BME280;26644;50.248;19.032;2022-11-18T04:18:49;96661.47;;;0.60;77.93
40918;BME280;26644;50.248;19.032;2022-11-18T04:19:51;96660.63;;;0.60;78.15
40918;BME280;26644;50.248;19.032;2022-11-18T04:20:53;96658.97;;;0.54;78.26
40918;BME280;26644;50.248;19.032;2022-11-18T04:21:55;96656.50;;;0.52;78.34
40918;BME280;26644;50.248;19.032;2022-11-18T04:22:58;96649.75;;;0.50;78.69
40918;BME280;26644;50.248;19.032;2022-11-18T04:24:00;96664.06;;;0.50;78.96
40918;BME280;26644;50.248;19.032;2022-11-18T04:25:02;96662.97;;;0.46;78.79
40918;BME280;26644;50.248;19.032;2022-11-18T04:26:05;96660.75;;;0.43;79.05
40918;BME280;26644;50.248;19.032;2022-11-18T04:27:07;96660.75;;;0.38;79.05
40918;BME280;26644;50.248;19.032;2022-11-18T04:28:10;96658.53;;;0.35;79.59
40918;BME280;26644;50.248;19.032;2022-11-18T04:29:13;96663.66;;;0.31;79.48
40918;BME280;26644;50.248;19.032;2022-11-18T04:30:14;96655.78;;;0.30;79.52
40918;BME280;26644;50.248;19.032;2022-11-18T04:31:17;96662.28;;;0.29;79.64
40918;BME280;26644;50.248;19.032;2022-11-18T04:32:18;96648.72;;;0.23;79.68
40918;BME280;26644;50.248;19.032;2022-11-18T04:33:23;96654.66;;;0.25;79.94
40918;BME280;26644;50.248;19.032;2022-11-18T04:34:24;96654.66;;;0.25;80.32
40918;BME280;26644;50.248;19.032;2022-11-18T04:35:27;96649.53;;;0.24;80.37
40918;BME280;26644;50.248;19.032;2022-11-18T04:36:28;96649.53;;;0.24;80.49
40918;BME280;26644;50.248;19.032;2022-11-18T04:37:30;96653.88;;;0.25;80.56
40918;BME280;26644;50.248;19.032;2022-11-18T04:38:33;96642.81;;;0.26;80.31
40918;BME280;26644;50.248;19.032;2022-11-18T04:39:35;96639.31;;;0.26;80.69
40918;BME280;26644;50.248;19.032;2022-11-18T04:40:37;96643.88;;;0.25;80.64
40918;BME280;26644;50.248;19.032;2022-11-18T04:41:39;96643.06;;;0.25;80.49
40918;BME280;26644;50.248;19.032;2022-11-18T04:42:55;96648.72;;;0.23;80.50
40918;BME280;26644;50.248;19.032;2022-11-18T04:43:59;96647.09;;;0.22;80.76
40918;BME280;26644;50.248;19.032;2022-11-18T04:45:00;96648.94;;;0.17;80.77
40918;BME280;26644;50.248;19.032;2022-11-18T04:46:03;96652.72;;;0.16;80.70
40918;BME280;26644;50.248;19.032;2022-11-18T04:47:05;96663.50;;;0.16;81.09
40918;BME280;26644;50.248;19.032;2022-11-18T04:48:08;96667.53;;;0.13;80.90
40918;BME280;26644;50.248;19.032;2022-11-18T04:49:13;96660.50;;;0.12;80.99
40918;BME280;26644;50.248;19.032;2022-11-18T04:50:16;96661.56;;;0.11;81.33
40918;BME280;26644;50.248;19.032;2022-11-18T04:51:18;96658.06;;;0.10;81.18
40918;BME280;26644;50.248;19.032;2022-11-18T04:52:20;96656.41;;;0.09;81.26
40918;BME280;26644;50.248;19.032;2022-11-18T04:53:22;96663.44;;;0.10;81.21
40918;BME280;26644;50.248;19.032;2022-11-18T04:54:26;96642.88;;;0.04;81.34
40918;BME280;26644;50.248;19.032;2022-11-18T04:55:29;96658.84;;;0.11;81.51
40918;BME280;26644;50.248;19.032;2022-11-18T04:56:30;96664.25;;;0.11;81.61
40918;BME280;26644;50.248;19.032;2022-11-18T04:57:33;96660.75;;;0.10;81.77
40918;BME280;26644;50.248;19.032;2022-11-18T04:58:35;96666.72;;;0.13;81.89
40918;BME280;26644;50.248;19.032;2022-11-18T04:59:37;96666.47;;;0.14;81.52
40918;BME280;26644;50.248;19.032;2022-11-18T05:00:40;96670.28;;;0.18;81.77
40918;BME280;26644;50.248;19.032;2022-11-18T05:01:42;96674.59;;;0.19;81.41
40918;BME280;26644;50.248;19.032;2022-11-18T05:02:44;96673.50;;;0.20;81.60
40918;BME280;26644;50.248;19.032;2022-11-18T05:03:46;96671.66;;;0.21;81.48
40918;BME280;26644;50.248;19.032;2022-11-18T05:04:50;96674.88;;;0.23;81.43
40918;BME280;26644;50.248;19.032;2022-11-18T05:05:53;96677.09;;;0.26;81.62
40918;BME280;26644;50.248;19.032;2022-11-18T05:06:54;96682.53;;;0.31;81.62
40918;BME280;26644;50.248;19.032;2022-11-18T05:07:57;96670.41;;;0.34;81.19
40918;BME280;26644;50.248;19.032;2022-11-18T05:09:00;96675.03;;;0.38;81.35
40918;BME280;26644;50.248;19.032;2022-11-18T05:10:03;96679.38;;;0.39;81.09
40918;BME280;26644;50.248;19.032;2022-11-18T05:11:07;96665.56;;;0.36;80.47
40918;BME280;26644;50.248;19.032;2022-11-18T05:12:23;96669.94;;;0.42;80.69
40918;BME280;26644;50.248;19.032;2022-11-18T05:13:43;96675.34;;;0.42;80.80
40918;BME280;26644;50.248;19.032;2022-11-18T05:14:45;96668.56;;;0.39;80.67
40918;BME280;26644;50.248;19.032;2022-11-18T05:15:48;96671.81;;;0.41;80.44
40918;BME280;26644;50.248;19.032;2022-11-18T05:16:49;96661.22;;;0.35;80.53
40918;BME280;26644;50.248;19.032;2022-11-18T05:17:52;96666.13;;;0.38;80.51
40918;BME280;26644;50.248;19.032;2022-11-18T05:18:54;96664.50;;;0.37;80.30
40918;BME280;26644;50.248;19.032;2022-11-18T05:19:57;96658.25;;;0.36;80.32
40918;BME280;26644;50.248;19.032;2022-11-18T05:21:04;96656.13;;;0.38;80.53
40918;BME280;26644;50.248;19.032;2022-11-18T05:22:05;96656.94;;;0.39;80.93
40918;BME280;26644;50.248;19.032;2022-11-18T05:23:08;96648.56;;;0.35;80.94
40918;BME280;26644;50.248;19.032;2022-11-18T05:24:10;96661.28;;;0.40;80.98
40918;BME280;26644;50.248;19.032;2022-11-18T05:25:12;96660.47;;;0.39;80.46
40918;BME280;26644;50.248;19.032;2022-11-18T05:26:14;96668.31;;;0.41;80.86
40918;BME280;26644;50.248;19.032;2022-11-18T05:27:17;96665.63;;;0.41;80.60
40918;BME280;26644;50.248;19.032;2022-11-18T05:28:19;96668.84;;;0.43;80.86
40918;BME280;26644;50.248;19.032;2022-11-18T05:29:21;96671.31;;;0.45;81.07
40918;BME280;26644;50.248;19.032;2022-11-18T05:30:39;96665.09;;;0.44;80.64
40918;BME280;26644;50.248;19.032;2022-11-18T05:31:41;96667.53;;;0.46;80.94
40918;BME280;26644;50.248;19.032;2022-11-18T05:32:43;96662.97;;;0.46;81.16
40918;BME280;26644;50.248;19.032;2022-11-18T05:33:45;96669.72;;;0.49;80.88
40918;BME280;26644;50.248;19.032;2022-11-18T05:34:47;96675.13;;;0.49;80.83
40918;BME280;26644;50.248;19.032;2022-11-18T05:35:51;96672.97;;;0.51;80.92
40918;BME280;26644;50.248;19.032;2022-11-18T05:36:54;96668.66;;;0.50;80.46
40918;BME280;26644;50.248;19.032;2022-11-18T05:37:55;96671.59;;;0.48;80.72
40918;BME280;26644;50.248;19.032;2022-11-18T05:38:58;96674.56;;;0.47;80.49
40918;BME280;26644;50.248;19.032;2022-11-18T05:39:59;96677.25;;;0.47;80.53
40918;BME280;26644;50.248;19.032;2022-11-18T05:41:03;96683.22;;;0.49;80.57
40918;BME280;26644;50.248;19.032;2022-11-18T05:42:06;96685.94;;;0.49;80.43
40918;BME280;26644;50.248;19.032;2022-11-18T05:43:26;96685.09;;;0.48;80.79
40918;BME280;26644;50.248;19.032;2022-11-18T05:44:29;96686.72;;;0.49;80.52
40918;BME280;26644;50.248;19.032;2022-11-18T05:45:30;96695.16;;;0.53;80.51
40918;BME280;26644;50.248;19.032;2022-11-18T05:46:33;96685.97;;;0.54;80.57
40918;BME280;26644;50.248;19.032;2022-11-18T05:47:35;96693.81;;;0.55;80.45
40918;BME280;26644;50.248;19.032;2022-11-18T05:48:58;96695.69;;;0.55;80.18
40918;BME280;26644;50.248;19.032;2022-11-18T05:49:59;96690.81;;;0.52;80.01
40918;BME280;26644;50.248;19.032;2022-11-18T05:51:03;96697.00;;;0.52;80.14
40918;BME280;26644;50.248;19.032;2022-11-18T05:52:05;96691.88;;;0.51;80.09
40918;BME280;26644;50.248;19.032;2022-11-18T05:53:08;96703.25;;;0.53;79.69
40918;BME280;26644;50.248;19.032;2022-11-18T05:54:13;96703.25;;;0.53;79.85
40918;BME280;26644;50.248;19.032;2022-11-18T05:55:19;96701.88;;;0.50;79.69
40918;BME280;26644;50.248;19.032;2022-11-18T05:56:27;96707.28;;;0.50;79.33
40918;BME280;26644;50.248;19.032;2022-11-18T05:57:32;96706.47;;;0.50;79.47